sensor_id;sensor_type;location;lat;lon;timestamp;P1;durP1;ratioP1;P2;durP2;ratioP2
65210;SDS011;51794;52.758;55.792;2022-12-13T00:01:34;3.33;;;1.42;;
65210;SDS011;51794;52.758;55.792;2022-12-13T00:04:01;2.53;;;1.20;;
65210;SDS011;51794;52.758;55.792;2022-12-13T00:06:27;3.10;;;1.08;;
65210;SDS011;51794;52.758;55.792;2022-12-13T00:08:53;4.05;;;1.40;;
65210;SDS011;51794;52.758;55.792;2022-12-13T00:11:19;1.45;;;1.02;;
65210;SDS011;51794;52.758;55.792;2022-12-13T00:13:45;1.33;;;0.90;;
65210;SDS011;51794;52.758;55.792;2022-12-13T00:16:14;2.28;;;1.45;;
65210;SDS011;51794;52.758;55.792;2022-12-13T00:18:39;3.85;;;1.63;;
65210;SDS011;51794;52.758;55.792;2022-12-13T00:21:06;2.25;;;1.23;;
65210;SDS011;51794;52.758;55.792;2022-12-13T00:23:32;2.65;;;1.17;;
65210;SDS011;51794;52.758;55.792;2022-12-13T00:26:04;2.33;;;1.40;;
65210;SDS011;51794;52.758;55.792;2022-12-13T00:28:31;2.55;;;1.20;;
65210;SDS011;51794;52.758;55.792;2022-12-13T00:31:00;5.40;;;1.75;;
65210;SDS011;51794;52.758;55.792;2022-12-13T00:33:26;1.63;;;1.00;;
65210;SDS011;51794;52.758;55.792;2022-12-13T00:35:52;3.15;;;1.13;;
65210;SDS011;51794;52.758;55.792;2022-12-13T00:38:18;1.77;;;1.25;;
65210;SDS011;51794;52.758;55.792;2022-12-13T00:40:43;4.22;;;1.05;;
65210;SDS011;51794;52.758;55.792;2022-12-13T00:43:09;3.10;;;1.45;;
65210;SDS011;51794;52.758;55.792;2022-12-13T00:45:35;2.30;;;1.35;;
65210;SDS011;51794;52.758;55.792;2022-12-13T00:48:03;3.00;;;1.17;;
65210;SDS011;51794;52.758;55.792;2022-12-13T00:50:29;2.83;;;1.30;;
65210;SDS011;51794;52.758;55.792;2022-12-13T00:52:55;2.47;;;1.30;;
65210;SDS011;51794;52.758;55.792;2022-12-13T00:55:21;4.35;;;1.45;;
65210;SDS011;51794;52.758;55.792;2022-12-13T00:57:46;1.55;;;0.98;;
65210;SDS011;51794;52.758;55.792;2022-12-13T01:00:12;1.73;;;1.05;;
65210;SDS011;51794;52.758;55.792;2022-12-13T01:02:38;3.10;;;1.30;;
65210;SDS011;51794;52.758;55.792;2022-12-13T01:05:06;1.70;;;1.10;;
65210;SDS011;51794;52.758;55.792;2022-12-13T01:07:32;1.02;;;0.90;;
65210;SDS011;51794;52.758;55.792;2022-12-13T01:09:57;2.05;;;1.17;;
65210;SDS011;51794;52.758;55.792;2022-12-13T01:12:23;3.10;;;1.20;;
65210;SDS011;51794;52.758;55.792;2022-12-13T01:14:49;1.42;;;1.02;;
65210;SDS011;51794;52.758;55.792;2022-12-13T01:17:15;2.72;;;1.20;;
65210;SDS011;51794;52.758;55.792;2022-12-13T01:19:40;3.03;;;1.20;;
65210;SDS011;51794;52.758;55.792;2022-12-13T01:22:06;3.28;;;1.00;;
65210;SDS011;51794;52.758;55.792;2022-12-13T01:24:32;2.30;;;1.30;;
65210;SDS011;51794;52.758;55.792;2022-12-13T01:26:58;1.85;;;1.08;;
65210;SDS011;51794;52.758;55.792;2022-12-13T01:29:24;2.08;;;1.00;;
65210;SDS011;51794;52.758;55.792;2022-12-13T01:31:51;2.33;;;1.35;;
65210;SDS011;51794;52.758;55.792;2022-12-13T01:34:17;3.28;;;1.23;;
65210;SDS011;51794;52.758;55.792;2022-12-13T01:36:44;2.22;;;1.00;;
65210;SDS011;51794;52.758;55.792;2022-12-13T01:39:12;2.60;;;1.17;;
65210;SDS011;51794;52.758;55.792;2022-12-13T01:41:38;4.28;;;1.13;;
65210;SDS011;51794;52.758;55.792;2022-12-13T01:44:04;1.65;;;0.90;;
65210;SDS011;51794;52.758;55.792;2022-12-13T01:46:32;2.45;;;1.00;;
65210;SDS011;51794;52.758;55.792;2022-12-13T01:49:02;1.92;;;1.20;;
65210;SDS011;51794;52.758;55.792;2022-12-13T01:51:31;2.03;;;1.10;;
65210;SDS011;51794;52.758;55.792;2022-12-13T01:53:58;2.28;;;1.33;;
65210;SDS011;51794;52.758;55.792;2022-12-13T01:56:29;2.30;;;1.25;;
65210;SDS011;51794;52.758;55.792;2022-12-13T01:58:55;3.47;;;1.20;;
65210;SDS011;51794;52.758;55.792;2022-12-13T02:01:23;3.65;;;1.33;;
65210;SDS011;51794;52.758;55.792;2022-12-13T02:03:48;3.05;;;1.15;;
65210;SDS011;51794;52.758;55.792;2022-12-13T02:06:47;4.13;;;1.45;;
65210;SDS011;51794;52.758;55.792;2022-12-13T02:09:06;1.27;;;1.00;;
65210;SDS011;51794;52.758;55.792;2022-12-13T02:11:33;2.33;;;1.30;;
65210;SDS011;51794;52.758;55.792;2022-12-13T02:13:59;1.63;;;1.15;;
65210;SDS011;51794;52.758;55.792;2022-12-13T02:16:37;2.28;;;1.25;;
65210;SDS011;51794;52.758;55.792;2022-12-13T02:21:51;2.88;;;1.40;;
65210;SDS011;51794;52.758;55.792;2022-12-13T02:24:30;2.05;;;1.30;;
65210;SDS011;51794;52.758;55.792;2022-12-13T02:35:36;1.48;;;0.80;;
65210;SDS011;51794;52.758;55.792;2022-12-13T02:40:13;2.45;;;1.10;;
65210;SDS011;51794;52.758;55.792;2022-12-13T02:42:44;2.17;;;0.93;;
65210;SDS011;51794;52.758;55.792;2022-12-13T02:45:14;2.65;;;1.05;;
65210;SDS011;51794;52.758;55.792;2022-12-13T02:47:41;2.22;;;1.00;;
65210;SDS011;51794;52.758;55.792;2022-12-13T02:50:11;1.93;;;1.20;;
65210;SDS011;51794;52.758;55.792;2022-12-13T02:52:39;2.50;;;1.27;;
65210;SDS011;51794;52.758;55.792;2022-12-13T02:55:08;1.80;;;1.13;;
65210;SDS011;51794;52.758;55.792;2022-12-13T02:57:37;2.05;;;1.20;;
65210;SDS011;51794;52.758;55.792;2022-12-13T03:02:37;3.88;;;1.75;;
65210;SDS011;51794;52.758;55.792;2022-12-13T03:05:41;3.22;;;1.20;;
65210;SDS011;51794;52.758;55.792;2022-12-13T03:08:25;3.10;;;1.20;;
65210;SDS011;51794;52.758;55.792;2022-12-13T03:11:08;2.28;;;1.20;;
65210;SDS011;51794;52.758;55.792;2022-12-13T03:16:03;3.63;;;1.30;;
65210;SDS011;51794;52.758;55.792;2022-12-13T03:18:30;2.65;;;1.20;;
65210;SDS011;51794;52.758;55.792;2022-12-13T03:21:01;2.20;;;1.02;;
65210;SDS011;51794;52.758;55.792;2022-12-13T03:23:28;2.55;;;1.10;;
65210;SDS011;51794;52.758;55.792;2022-12-13T03:28:31;1.25;;;1.02;;
65210;SDS011;51794;52.758;55.792;2022-12-13T03:30:57;2.35;;;0.95;;
65210;SDS011;51794;52.758;55.792;2022-12-13T03:33:23;2.55;;;1.05;;
65210;SDS011;51794;52.758;55.792;2022-12-13T03:35:48;2.17;;;1.42;;
65210;SDS011;51794;52.758;55.792;2022-12-13T03:38:15;1.80;;;1.30;;
65210;SDS011;51794;52.758;55.792;2022-12-13T03:40:41;2.30;;;1.30;;
65210;SDS011;51794;52.758;55.792;2022-12-13T03:43:06;1.70;;;1.20;;
65210;SDS011;51794;52.758;55.792;2022-12-13T03:45:32;2.50;;;0.90;;
65210;SDS011;51794;52.758;55.792;2022-12-13T03:47:58;3.67;;;1.55;;
65210;SDS011;51794;52.758;55.792;2022-12-13T03:50:23;2.72;;;1.33;;
65210;SDS011;51794;52.758;55.792;2022-12-13T03:52:49;1.33;;;0.80;;
65210;SDS011;51794;52.758;55.792;2022-12-13T03:55:18;2.97;;;1.20;;
65210;SDS011;51794;52.758;55.792;2022-12-13T03:57:43;1.85;;;1.10;;
65210;SDS011;51794;52.758;55.792;2022-12-13T04:00:09;1.55;;;1.08;;
65210;SDS011;51794;52.758;55.792;2022-12-13T04:02:35;2.58;;;1.33;;
65210;SDS011;51794;52.758;55.792;2022-12-13T04:05:01;1.30;;;0.90;;
65210;SDS011;51794;52.758;55.792;2022-12-13T04:07:27;2.30;;;1.00;;
65210;SDS011;51794;52.758;55.792;2022-12-13T04:09:52;3.17;;;1.55;;
65210;SDS011;51794;52.758;55.792;2022-12-13T04:12:18;2.65;;;1.45;;
65210;SDS011;51794;52.758;55.792;2022-12-13T04:15:02;3.25;;;1.50;;
65210;SDS011;51794;52.758;55.792;2022-12-13T04:17:29;2.88;;;1.02;;
65210;SDS011;51794;52.758;55.792;2022-12-13T04:19:55;1.77;;;1.08;;
65210;SDS011;51794;52.758;55.792;2022-12-13T04:22:20;2.38;;;1.25;;
65210;SDS011;51794;52.758;55.792;2022-12-13T04:24:46;1.30;;;0.90;;
65210;SDS011;51794;52.758;55.792;2022-12-13T04:27:12;2.30;;;1.20;;
65210;SDS011;51794;52.758;55.792;2022-12-13T04:29:38;3.60;;;1.20;;
65210;SDS011;51794;52.758;55.792;2022-12-13T04:32:03;2.22;;;1.00;;
65210;SDS011;51794;52.758;55.792;2022-12-13T04:34:29;2.63;;;1.08;;
65210;SDS011;51794;52.758;55.792;2022-12-13T04:36:55;2.42;;;1.17;;
65210;SDS011;51794;52.758;55.792;2022-12-13T04:39:21;1.60;;;1.15;;
65210;SDS011;51794;52.758;55.792;2022-12-13T04:41:46;1.92;;;0.80;;
65210;SDS011;51794;52.758;55.792;2022-12-13T04:44:12;2.67;;;1.20;;
65210;SDS011;51794;52.758;55.792;2022-12-13T04:46:38;1.80;;;0.90;;
65210;SDS011;51794;52.758;55.792;2022-12-13T04:49:03;2.97;;;1.00;;
65210;SDS011;51794;52.758;55.792;2022-12-13T04:51:29;6.55;;;1.52;;
65210;SDS011;51794;52.758;55.792;2022-12-13T04:53:55;3.47;;;1.10;;
65210;SDS011;51794;52.758;55.792;2022-12-13T04:56:21;2.95;;;1.13;;
65210;SDS011;51794;52.758;55.792;2022-12-13T04:58:47;1.67;;;1.05;;
65210;SDS011;51794;52.758;55.792;2022-12-13T05:01:12;2.88;;;1.20;;
65210;SDS011;51794;52.758;55.792;2022-12-13T05:03:38;1.70;;;1.00;;
65210;SDS011;51794;52.758;55.792;2022-12-13T05:06:08;1.42;;;1.02;;
65210;SDS011;51794;52.758;55.792;2022-12-13T05:08:34;1.57;;;0.90;;
65210;SDS011;51794;52.758;55.792;2022-12-13T05:11:00;1.70;;;1.00;;
65210;SDS011;51794;52.758;55.792;2022-12-13T05:13:26;2.42;;;0.98;;
65210;SDS011;51794;52.758;55.792;2022-12-13T05:15:58;2.58;;;1.10;;
65210;SDS011;51794;52.758;55.792;2022-12-13T05:18:24;7.70;;;1.35;;
65210;SDS011;51794;52.758;55.792;2022-12-13T05:20:50;2.08;;;1.00;;
65210;SDS011;51794;52.758;55.792;2022-12-13T05:23:16;3.65;;;1.30;;
65210;SDS011;51794;52.758;55.792;2022-12-13T05:25:42;2.53;;;1.52;;
65210;SDS011;51794;52.758;55.792;2022-12-13T05:28:08;1.90;;;1.10;;
65210;SDS011;51794;52.758;55.792;2022-12-13T05:30:36;1.75;;;1.00;;
65210;SDS011;51794;52.758;55.792;2022-12-13T05:33:02;2.40;;;1.20;;
65210;SDS011;51794;52.758;55.792;2022-12-13T05:35:27;3.38;;;1.00;;
65210;SDS011;51794;52.758;55.792;2022-12-13T05:37:53;1.25;;;0.90;;
65210;SDS011;51794;52.758;55.792;2022-12-13T05:40:19;1.67;;;1.00;;
65210;SDS011;51794;52.758;55.792;2022-12-13T05:42:44;3.70;;;1.70;;
65210;SDS011;51794;52.758;55.792;2022-12-13T05:45:10;1.83;;;0.93;;
65210;SDS011;51794;52.758;55.792;2022-12-13T05:47:36;1.83;;;1.00;;
65210;SDS011;51794;52.758;55.792;2022-12-13T05:50:02;2.10;;;1.08;;
65210;SDS011;51794;52.758;55.792;2022-12-13T05:52:29;1.48;;;1.13;;
65210;SDS011;51794;52.758;55.792;2022-12-13T05:54:55;2.95;;;1.38;;
65210;SDS011;51794;52.758;55.792;2022-12-13T05:57:21;2.30;;;0.93;;
65210;SDS011;51794;52.758;55.792;2022-12-13T05:59:47;3.40;;;1.13;;
65210;SDS011;51794;52.758;55.792;2022-12-13T06:02:13;2.60;;;1.10;;
65210;SDS011;51794;52.758;55.792;2022-12-13T06:04:39;1.90;;;1.00;;
65210;SDS011;51794;52.758;55.792;2022-12-13T06:07:04;1.92;;;0.90;;
65210;SDS011;51794;52.758;55.792;2022-12-13T06:09:30;2.17;;;0.95;;
65210;SDS011;51794;52.758;55.792;2022-12-13T06:11:56;1.95;;;1.17;;
65210;SDS011;51794;52.758;55.792;2022-12-13T06:14:21;2.65;;;1.02;;
65210;SDS011;51794;52.758;55.792;2022-12-13T06:16:47;2.35;;;1.23;;
65210;SDS011;51794;52.758;55.792;2022-12-13T06:19:13;0.93;;;0.80;;
65210;SDS011;51794;52.758;55.792;2022-12-13T06:21:39;2.25;;;1.10;;
65210;SDS011;51794;52.758;55.792;2022-12-13T06:24:05;1.85;;;1.00;;
65210;SDS011;51794;52.758;55.792;2022-12-13T06:26:33;2.17;;;1.10;;
65210;SDS011;51794;52.758;55.792;2022-12-13T06:28:59;2.38;;;1.20;;
65210;SDS011;51794;52.758;55.792;2022-12-13T06:31:24;1.60;;;1.20;;
65210;SDS011;51794;52.758;55.792;2022-12-13T06:33:50;2.30;;;1.13;;
65210;SDS011;51794;52.758;55.792;2022-12-13T06:36:16;3.00;;;1.00;;
65210;SDS011;51794;52.758;55.792;2022-12-13T06:38:41;1.48;;;1.20;;
65210;SDS011;51794;52.758;55.792;2022-12-13T06:41:11;1.80;;;0.98;;
65210;SDS011;51794;52.758;55.792;2022-12-13T06:43:40;2.58;;;1.35;;
65210;SDS011;51794;52.758;55.792;2022-12-13T06:46:06;1.95;;;1.10;;
65210;SDS011;51794;52.758;55.792;2022-12-13T06:48:32;1.67;;;1.00;;
65210;SDS011;51794;52.758;55.792;2022-12-13T06:50:58;2.67;;;1.27;;
65210;SDS011;51794;52.758;55.792;2022-12-13T06:53:24;2.17;;;1.13;;
65210;SDS011;51794;52.758;55.792;2022-12-13T06:55:50;3.05;;;1.15;;
65210;SDS011;51794;52.758;55.792;2022-12-13T06:58:16;1.80;;;0.90;;
65210;SDS011;51794;52.758;55.792;2022-12-13T07:00:42;1.33;;;0.90;;
65210;SDS011;51794;52.758;55.792;2022-12-13T07:03:07;2.20;;;1.10;;
65210;SDS011;51794;52.758;55.792;2022-12-13T07:05:36;2.03;;;1.10;;
65210;SDS011;51794;52.758;55.792;2022-12-13T07:08:02;1.88;;;1.20;;
65210;SDS011;51794;52.758;55.792;2022-12-13T07:10:28;2.15;;;1.00;;
65210;SDS011;51794;52.758;55.792;2022-12-13T07:12:54;1.85;;;0.98;;
65210;SDS011;51794;52.758;55.792;2022-12-13T07:15:19;2.05;;;0.93;;
65210;SDS011;51794;52.758;55.792;2022-12-13T07:17:49;2.00;;;1.10;;
65210;SDS011;51794;52.758;55.792;2022-12-13T07:20:15;2.05;;;1.10;;
65210;SDS011;51794;52.758;55.792;2022-12-13T07:22:41;3.15;;;1.20;;
65210;SDS011;51794;52.758;55.792;2022-12-13T07:25:07;1.27;;;0.90;;
65210;SDS011;51794;52.758;55.792;2022-12-13T07:27:33;3.65;;;1.10;;
65210;SDS011;51794;52.758;55.792;2022-12-13T07:29:59;2.55;;;1.00;;
65210;SDS011;51794;52.758;55.792;2022-12-13T07:32:26;2.60;;;1.13;;
65210;SDS011;51794;52.758;55.792;2022-12-13T07:34:52;1.52;;;1.00;;
65210;SDS011;51794;52.758;55.792;2022-12-13T07:37:17;1.38;;;0.85;;
65210;SDS011;51794;52.758;55.792;2022-12-13T07:39:44;2.00;;;1.00;;
65210;SDS011;51794;52.758;55.792;2022-12-13T07:42:09;1.98;;;0.98;;
65210;SDS011;51794;52.758;55.792;2022-12-13T07:44:35;3.15;;;1.25;;
65210;SDS011;51794;52.758;55.792;2022-12-13T07:47:01;1.17;;;1.08;;
65210;SDS011;51794;52.758;55.792;2022-12-13T07:49:29;1.42;;;0.90;;
65210;SDS011;51794;52.758;55.792;2022-12-13T07:51:54;1.77;;;1.00;;
65210;SDS011;51794;52.758;55.792;2022-12-13T07:54:21;1.23;;;0.95;;
65210;SDS011;51794;52.758;55.792;2022-12-13T07:56:47;2.50;;;1.02;;
65210;SDS011;51794;52.758;55.792;2022-12-13T07:59:12;1.30;;;0.95;;
65210;SDS011;51794;52.758;55.792;2022-12-13T08:01:38;1.65;;;0.80;;
65210;SDS011;51794;52.758;55.792;2022-12-13T08:04:04;2.05;;;1.00;;
65210;SDS011;51794;52.758;55.792;2022-12-13T08:06:34;2.13;;;1.30;;
65210;SDS011;51794;52.758;55.792;2022-12-13T08:09:00;1.77;;;0.93;;
65210;SDS011;51794;52.758;55.792;2022-12-13T08:11:26;2.10;;;1.10;;
65210;SDS011;51794;52.758;55.792;2022-12-13T08:13:52;1.63;;;1.10;;
65210;SDS011;51794;52.758;55.792;2022-12-13T08:16:18;5.70;;;1.45;;
65210;SDS011;51794;52.758;55.792;2022-12-13T08:18:44;1.67;;;1.00;;
65210;SDS011;51794;52.758;55.792;2022-12-13T08:21:11;2.05;;;1.35;;
65210;SDS011;51794;52.758;55.792;2022-12-13T08:23:37;1.05;;;0.90;;
65210;SDS011;51794;52.758;55.792;2022-12-13T08:26:03;2.78;;;1.30;;
65210;SDS011;51794;52.758;55.792;2022-12-13T08:28:30;3.58;;;0.70;;
65210;SDS011;51794;52.758;55.792;2022-12-13T08:31:06;2.45;;;1.25;;
65210;SDS011;51794;52.758;55.792;2022-12-13T08:33:33;1.45;;;1.00;;
65210;SDS011;51794;52.758;55.792;2022-12-13T08:36:20;1.55;;;1.02;;
65210;SDS011;51794;52.758;55.792;2022-12-13T08:38:49;3.30;;;1.08;;
65210;SDS011;51794;52.758;55.792;2022-12-13T08:41:15;1.63;;;0.90;;
65210;SDS011;51794;52.758;55.792;2022-12-13T08:43:40;2.78;;;1.10;;
65210;SDS011;51794;52.758;55.792;2022-12-13T08:46:06;3.10;;;1.40;;
65210;SDS011;51794;52.758;55.792;2022-12-13T08:48:33;1.60;;;1.10;;
65210;SDS011;51794;52.758;55.792;2022-12-13T08:51:01;1.65;;;1.13;;
65210;SDS011;51794;52.758;55.792;2022-12-13T08:53:27;1.55;;;1.20;;
65210;SDS011;51794;52.758;55.792;2022-12-13T08:55:53;1.98;;;1.20;;
65210;SDS011;51794;52.758;55.792;2022-12-13T08:58:19;1.77;;;1.20;;
65210;SDS011;51794;52.758;55.792;2022-12-13T09:00:44;2.65;;;1.75;;
65210;SDS011;51794;52.758;55.792;2022-12-13T09:03:10;1.70;;;1.20;;
65210;SDS011;51794;52.758;55.792;2022-12-13T09:05:36;2.25;;;1.17;;
65210;SDS011;51794;52.758;55.792;2022-12-13T09:08:02;1.67;;;1.25;;
65210;SDS011;51794;52.758;55.792;2022-12-13T09:10:29;1.35;;;1.05;;
65210;SDS011;51794;52.758;55.792;2022-12-13T09:12:55;2.45;;;1.15;;
65210;SDS011;51794;52.758;55.792;2022-12-13T09:15:24;3.55;;;1.23;;
65210;SDS011;51794;52.758;55.792;2022-12-13T09:17:49;2.60;;;1.20;;
65210;SDS011;51794;52.758;55.792;2022-12-13T09:20:15;1.65;;;1.17;;
65210;SDS011;51794;52.758;55.792;2022-12-13T09:22:41;1.45;;;1.15;;
65210;SDS011;51794;52.758;55.792;2022-12-13T09:25:08;2.17;;;1.02;;
65210;SDS011;51794;52.758;55.792;2022-12-13T09:27:34;1.77;;;1.20;;
65210;SDS011;51794;52.758;55.792;2022-12-13T09:30:00;1.45;;;1.00;;
65210;SDS011;51794;52.758;55.792;2022-12-13T09:32:26;1.73;;;1.23;;
65210;SDS011;51794;52.758;55.792;2022-12-13T09:34:52;2.58;;;1.50;;
65210;SDS011;51794;52.758;55.792;2022-12-13T09:37:18;2.55;;;1.42;;
65210;SDS011;51794;52.758;55.792;2022-12-13T09:39:44;1.30;;;1.00;;
65210;SDS011;51794;52.758;55.792;2022-12-13T09:42:16;3.25;;;1.33;;
65210;SDS011;51794;52.758;55.792;2022-12-13T09:44:46;4.85;;;1.20;;
65210;SDS011;51794;52.758;55.792;2022-12-13T09:47:21;1.70;;;1.30;;
65210;SDS011;51794;52.758;55.792;2022-12-13T09:49:48;5.05;;;1.30;;
65210;SDS011;51794;52.758;55.792;2022-12-13T09:52:14;3.22;;;1.02;;
65210;SDS011;51794;52.758;55.792;2022-12-13T09:54:43;1.50;;;1.10;;
65210;SDS011;51794;52.758;55.792;2022-12-13T09:57:17;2.58;;;1.30;;
65210;SDS011;51794;52.758;55.792;2022-12-13T09:59:43;4.25;;;1.60;;
65210;SDS011;51794;52.758;55.792;2022-12-13T10:02:13;2.00;;;1.50;;
65210;SDS011;51794;52.758;55.792;2022-12-13T10:04:40;5.35;;;2.70;;
65210;SDS011;51794;52.758;55.792;2022-12-13T10:07:13;1.60;;;0.98;;
65210;SDS011;51794;52.758;55.792;2022-12-13T10:09:41;2.65;;;1.40;;
65210;SDS011;51794;52.758;55.792;2022-12-13T10:12:07;2.35;;;1.13;;
65210;SDS011;51794;52.758;55.792;2022-12-13T10:14:37;2.65;;;1.23;;
65210;SDS011;51794;52.758;55.792;2022-12-13T10:17:05;2.00;;;1.33;;
65210;SDS011;51794;52.758;55.792;2022-12-13T10:21:57;3.67;;;1.63;;
65210;SDS011;51794;52.758;55.792;2022-12-13T10:24:25;2.50;;;1.60;;
65210;SDS011;51794;52.758;55.792;2022-12-13T10:29:20;1.67;;;1.30;;
65210;SDS011;51794;52.758;55.792;2022-12-13T10:31:47;2.80;;;1.42;;
65210;SDS011;51794;52.758;55.792;2022-12-13T10:36:42;2.83;;;1.20;;
65210;SDS011;51794;52.758;55.792;2022-12-13T10:39:13;2.53;;;1.17;;
65210;SDS011;51794;52.758;55.792;2022-12-13T10:41:40;2.55;;;1.48;;
65210;SDS011;51794;52.758;55.792;2022-12-13T10:46:48;2.78;;;1.60;;
65210;SDS011;51794;52.758;55.792;2022-12-13T10:49:19;2.92;;;1.65;;
65210;SDS011;51794;52.758;55.792;2022-12-13T10:51:45;2.38;;;1.38;;
65210;SDS011;51794;52.758;55.792;2022-12-13T10:54:27;2.30;;;1.52;;
65210;SDS011;51794;52.758;55.792;2022-12-13T10:56:54;2.00;;;1.40;;
65210;SDS011;51794;52.758;55.792;2022-12-13T10:59:32;3.30;;;1.58;;
65210;SDS011;51794;52.758;55.792;2022-12-13T11:01:58;1.65;;;1.17;;
65210;SDS011;51794;52.758;55.792;2022-12-13T11:04:27;2.53;;;1.50;;
65210;SDS011;51794;52.758;55.792;2022-12-13T11:06:54;5.13;;;3.10;;
65210;SDS011;51794;52.758;55.792;2022-12-13T11:09:28;3.33;;;1.98;;
65210;SDS011;51794;52.758;55.792;2022-12-13T11:11:55;5.97;;;2.50;;
65210;SDS011;51794;52.758;55.792;2022-12-13T11:14:23;17.92;;;7.47;;
65210;SDS011;51794;52.758;55.792;2022-12-13T11:16:50;13.07;;;5.88;;
65210;SDS011;51794;52.758;55.792;2022-12-13T11:19:20;6.45;;;2.95;;
65210;SDS011;51794;52.758;55.792;2022-12-13T11:21:48;15.73;;;6.75;;
65210;SDS011;51794;52.758;55.792;2022-12-13T11:24:19;9.10;;;3.92;;
65210;SDS011;51794;52.758;55.792;2022-12-13T11:26:46;11.02;;;5.22;;
65210;SDS011;51794;52.758;55.792;2022-12-13T11:31:52;4.68;;;2.58;;
65210;SDS011;51794;52.758;55.792;2022-12-13T11:34:27;19.38;;;10.10;;
65210;SDS011;51794;52.758;55.792;2022-12-13T11:39:31;24.13;;;13.18;;
65210;SDS011;51794;52.758;55.792;2022-12-13T11:46:56;12.27;;;5.35;;
65210;SDS011;51794;52.758;55.792;2022-12-13T11:52:12;7.18;;;4.05;;
65210;SDS011;51794;52.758;55.792;2022-12-13T12:00:06;17.10;;;11.23;;
65210;SDS011;51794;52.758;55.792;2022-12-13T12:02:38;16.85;;;10.77;;
65210;SDS011;51794;52.758;55.792;2022-12-13T12:05:05;15.55;;;9.52;;
65210;SDS011;51794;52.758;55.792;2022-12-13T12:07:40;18.85;;;11.23;;
65210;SDS011;51794;52.758;55.792;2022-12-13T12:10:19;15.32;;;9.60;;
65210;SDS011;51794;52.758;55.792;2022-12-13T12:12:50;20.55;;;12.07;;
65210;SDS011;51794;52.758;55.792;2022-12-13T12:17:47;23.25;;;11.27;;
65210;SDS011;51794;52.758;55.792;2022-12-13T12:20:14;21.48;;;12.27;;
65210;SDS011;51794;52.758;55.792;2022-12-13T12:38:09;13.95;;;6.80;;
65210;SDS011;51794;52.758;55.792;2022-12-13T12:45:52;14.07;;;6.15;;
65210;SDS011;51794;52.758;55.792;2022-12-13T12:48:27;14.88;;;6.72;;
65210;SDS011;51794;52.758;55.792;2022-12-13T12:51:06;14.98;;;7.40;;
65210;SDS011;51794;52.758;55.792;2022-12-13T12:53:36;29.88;;;12.55;;
65210;SDS011;51794;52.758;55.792;2022-12-13T12:56:10;19.33;;;9.65;;
65210;SDS011;51794;52.758;55.792;2022-12-13T13:03:29;17.27;;;10.13;;
65210;SDS011;51794;52.758;55.792;2022-12-13T13:05:58;17.75;;;10.38;;
65210;SDS011;51794;52.758;55.792;2022-12-13T13:08:37;19.73;;;9.00;;
65210;SDS011;51794;52.758;55.792;2022-12-13T13:11:05;17.08;;;8.20;;
65210;SDS011;51794;52.758;55.792;2022-12-13T13:15:57;24.98;;;11.95;;
65210;SDS011;51794;52.758;55.792;2022-12-13T13:18:43;15.98;;;7.90;;
65210;SDS011;51794;52.758;55.792;2022-12-13T13:26:37;20.08;;;7.82;;
65210;SDS011;51794;52.758;55.792;2022-12-13T13:34:35;25.83;;;13.35;;
65210;SDS011;51794;52.758;55.792;2022-12-13T13:37:02;20.23;;;12.05;;
65210;SDS011;51794;52.758;55.792;2022-12-13T13:49:37;12.57;;;6.05;;
65210;SDS011;51794;52.758;55.792;2022-12-13T13:52:19;33.10;;;15.85;;
65210;SDS011;51794;52.758;55.792;2022-12-13T14:28:47;58.15;;;26.83;;
65210;SDS011;51794;52.758;55.792;2022-12-13T14:31:14;45.75;;;22.40;;
65210;SDS011;51794;52.758;55.792;2022-12-13T14:33:42;42.08;;;18.15;;
65210;SDS011;51794;52.758;55.792;2022-12-13T14:36:10;19.08;;;10.25;;
65210;SDS011;51794;52.758;55.792;2022-12-13T14:38:37;16.17;;;7.70;;
65210;SDS011;51794;52.758;55.792;2022-12-13T14:41:03;11.68;;;6.13;;
65210;SDS011;51794;52.758;55.792;2022-12-13T14:43:31;7.25;;;3.67;;
65210;SDS011;51794;52.758;55.792;2022-12-13T14:45:58;11.63;;;5.53;;
65210;SDS011;51794;52.758;55.792;2022-12-13T14:48:24;12.18;;;5.30;;
65210;SDS011;51794;52.758;55.792;2022-12-13T14:50:50;41.08;;;18.88;;
65210;SDS011;51794;52.758;55.792;2022-12-13T14:53:26;50.90;;;22.40;;
65210;SDS011;51794;52.758;55.792;2022-12-13T14:56:09;47.78;;;22.58;;
65210;SDS011;51794;52.758;55.792;2022-12-13T14:58:36;56.58;;;27.42;;
65210;SDS011;51794;52.758;55.792;2022-12-13T15:01:05;30.27;;;15.70;;
65210;SDS011;51794;52.758;55.792;2022-12-13T15:03:32;12.88;;;6.68;;
65210;SDS011;51794;52.758;55.792;2022-12-13T15:05:59;17.55;;;9.27;;
65210;SDS011;51794;52.758;55.792;2022-12-13T15:08:26;48.03;;;24.52;;
65210;SDS011;51794;52.758;55.792;2022-12-13T15:10:56;55.78;;;29.80;;
65210;SDS011;51794;52.758;55.792;2022-12-13T15:16:08;52.42;;;24.20;;
65210;SDS011;51794;52.758;55.792;2022-12-13T15:18:34;45.75;;;23.33;;
65210;SDS011;51794;52.758;55.792;2022-12-13T15:21:00;29.92;;;15.35;;
65210;SDS011;51794;52.758;55.792;2022-12-13T15:26:02;57.60;;;26.45;;
65210;SDS011;51794;52.758;55.792;2022-12-13T15:28:33;61.00;;;29.23;;
65210;SDS011;51794;52.758;55.792;2022-12-13T15:31:00;57.85;;;27.13;;
65210;SDS011;51794;52.758;55.792;2022-12-13T15:33:28;23.17;;;11.73;;
65210;SDS011;51794;52.758;55.792;2022-12-13T15:38:39;5.75;;;3.05;;
65210;SDS011;51794;52.758;55.792;2022-12-13T15:41:16;3.30;;;1.63;;
65210;SDS011;51794;52.758;55.792;2022-12-13T15:43:43;2.13;;;1.52;;
65210;SDS011;51794;52.758;55.792;2022-12-13T15:46:10;5.63;;;2.22;;
65210;SDS011;51794;52.758;55.792;2022-12-13T15:48:37;7.10;;;3.25;;
65210;SDS011;51794;52.758;55.792;2022-12-13T15:51:04;8.68;;;4.47;;
65210;SDS011;51794;52.758;55.792;2022-12-13T15:53:30;7.50;;;3.88;;
65210;SDS011;51794;52.758;55.792;2022-12-13T15:55:58;3.75;;;1.83;;
65210;SDS011;51794;52.758;55.792;2022-12-13T16:00:54;3.55;;;2.05;;
65210;SDS011;51794;52.758;55.792;2022-12-13T16:03:21;7.85;;;3.28;;
65210;SDS011;51794;52.758;55.792;2022-12-13T16:05:48;15.50;;;6.63;;
65210;SDS011;51794;52.758;55.792;2022-12-13T16:08:19;11.43;;;5.93;;
65210;SDS011;51794;52.758;55.792;2022-12-13T16:10:47;10.38;;;4.25;;
65210;SDS011;51794;52.758;55.792;2022-12-13T16:13:33;8.55;;;4.85;;
65210;SDS011;51794;52.758;55.792;2022-12-13T16:18:49;4.57;;;2.90;;
65210;SDS011;51794;52.758;55.792;2022-12-13T16:21:15;3.03;;;2.03;;
65210;SDS011;51794;52.758;55.792;2022-12-13T16:23:41;3.90;;;2.25;;
65210;SDS011;51794;52.758;55.792;2022-12-13T16:26:09;4.43;;;2.30;;
65210;SDS011;51794;52.758;55.792;2022-12-13T16:28:38;4.93;;;2.47;;
65210;SDS011;51794;52.758;55.792;2022-12-13T16:31:22;2.95;;;1.92;;
65210;SDS011;51794;52.758;55.792;2022-12-13T16:33:49;3.58;;;1.38;;
65210;SDS011;51794;52.758;55.792;2022-12-13T16:36:15;1.75;;;1.27;;
65210;SDS011;51794;52.758;55.792;2022-12-13T16:38:41;2.20;;;1.23;;
65210;SDS011;51794;52.758;55.792;2022-12-13T16:41:07;4.32;;;2.28;;
65210;SDS011;51794;52.758;55.792;2022-12-13T16:43:33;5.50;;;2.65;;
65210;SDS011;51794;52.758;55.792;2022-12-13T16:45:59;10.43;;;6.47;;
65210;SDS011;51794;52.758;55.792;2022-12-13T16:48:27;4.05;;;2.08;;
65210;SDS011;51794;52.758;55.792;2022-12-13T16:50:53;18.33;;;6.03;;
65210;SDS011;51794;52.758;55.792;2022-12-13T16:53:19;8.00;;;2.85;;
65210;SDS011;51794;52.758;55.792;2022-12-13T16:55:45;5.80;;;3.25;;
65210;SDS011;51794;52.758;55.792;2022-12-13T16:58:15;3.90;;;2.10;;
65210;SDS011;51794;52.758;55.792;2022-12-13T17:00:41;9.33;;;3.07;;
65210;SDS011;51794;52.758;55.792;2022-12-13T17:03:08;6.88;;;2.42;;